Vankleek Hill, Canada
Current Conditions -  °F | °C
As of 11:00 AM on Thursday 18 Dec 2014 (Local Time) from CYMX Reporting Station
Light Snow Light Snow  
Wind Chill: 25°   Ceiling: 4000
Heat Index: 30°   Visibility: 3mi
Dew Point: 28°   Wind: 5mph
Humidity: 93%   Direction: 260°W
Pressure: 29.87"   Gusts: NA
Location:  45.52°N, 74.65°W
Report Text: CYMX 181600Z 26004KT 240V310 3SM -SN BR SCT022 OVC040 M01/M02 A2987 RMK SC3SC5 /S01/ SLP120
Loading
Personal Weather Stations






























Interactive Weather Map New forecast layout! Learn more

10-Day Weather Forecast

Advertisements
Track Severe Weather on mobile